sensor_id;sensor_type;location;lat;lon;timestamp;P1;durP1;ratioP1;P2;durP2;ratioP2
16460;SDS011;8341;42.048;24.650;2023-04-01T00:01:03;3.35;;;2.17;;
16460;SDS011;8341;42.048;24.650;2023-04-01T00:03:32;7.70;;;2.65;;
16460;SDS011;8341;42.048;24.650;2023-04-01T00:06:00;3.42;;;2.10;;
16460;SDS011;8341;42.048;24.650;2023-04-01T00:08:28;1.85;;;1.52;;
16460;SDS011;8341;42.048;24.650;2023-04-01T00:10:57;4.72;;;1.83;;
16460;SDS011;8341;42.048;24.650;2023-04-01T00:13:25;2.80;;;2.10;;
16460;SDS011;8341;42.048;24.650;2023-04-01T00:15:53;2.63;;;1.70;;
16460;SDS011;8341;42.048;24.650;2023-04-01T00:18:21;3.55;;;1.85;;
16460;SDS011;8341;42.048;24.650;2023-04-01T00:20:49;2.55;;;1.75;;
16460;SDS011;8341;42.048;24.650;2023-04-01T00:23:17;4.28;;;1.83;;
16460;SDS011;8341;42.048;24.650;2023-04-01T00:25:46;3.30;;;1.50;;
16460;SDS011;8341;42.048;24.650;2023-04-01T00:28:16;3.97;;;1.77;;
16460;SDS011;8341;42.048;24.650;2023-04-01T00:30:43;3.50;;;2.30;;
16460;SDS011;8341;42.048;24.650;2023-04-01T00:33:12;5.38;;;2.33;;
16460;SDS011;8341;42.048;24.650;2023-04-01T00:35:40;3.42;;;1.70;;
16460;SDS011;8341;42.048;24.650;2023-04-01T00:38:07;3.83;;;1.67;;
16460;SDS011;8341;42.048;24.650;2023-04-01T00:40:37;2.22;;;1.73;;
16460;SDS011;8341;42.048;24.650;2023-04-01T00:43:09;4.03;;;2.03;;
16460;SDS011;8341;42.048;24.650;2023-04-01T00:45:40;3.28;;;2.13;;
16460;SDS011;8341;42.048;24.650;2023-04-01T00:48:10;2.97;;;2.28;;
16460;SDS011;8341;42.048;24.650;2023-04-01T00:50:39;4.85;;;2.15;;
16460;SDS011;8341;42.048;24.650;2023-04-01T00:53:08;3.85;;;2.45;;
16460;SDS011;8341;42.048;24.650;2023-04-01T00:55:37;4.95;;;2.30;;
16460;SDS011;8341;42.048;24.650;2023-04-01T00:58:09;3.38;;;2.17;;
16460;SDS011;8341;42.048;24.650;2023-04-01T01:00:42;5.45;;;2.50;;
16460;SDS011;8341;42.048;24.650;2023-04-01T01:03:11;3.63;;;2.17;;
16460;SDS011;8341;42.048;24.650;2023-04-01T01:05:44;3.95;;;2.30;;
16460;SDS011;8341;42.048;24.650;2023-04-01T01:08:21;2.78;;;2.30;;
16460;SDS011;8341;42.048;24.650;2023-04-01T01:10:57;5.65;;;3.53;;
16460;SDS011;8341;42.048;24.650;2023-04-01T01:13:25;5.50;;;3.75;;
16460;SDS011;8341;42.048;24.650;2023-04-01T01:16:03;4.38;;;3.03;;
16460;SDS011;8341;42.048;24.650;2023-04-01T01:18:36;3.90;;;2.65;;
16460;SDS011;8341;42.048;24.650;2023-04-01T01:21:23;5.05;;;2.90;;
16460;SDS011;8341;42.048;24.650;2023-04-01T01:24:09;3.85;;;2.33;;
16460;SDS011;8341;42.048;24.650;2023-04-01T01:26:54;1.80;;;1.60;;
16460;SDS011;8341;42.048;24.650;2023-04-01T01:29:51;2.05;;;1.85;;
16460;SDS011;8341;42.048;24.650;2023-04-01T01:32:47;6.03;;;2.83;;
16460;SDS011;8341;42.048;24.650;2023-04-01T01:35:27;4.68;;;2.75;;
16460;SDS011;8341;42.048;24.650;2023-04-01T01:38:00;5.10;;;2.78;;
16460;SDS011;8341;42.048;24.650;2023-04-01T01:40:30;6.70;;;2.85;;
16460;SDS011;8341;42.048;24.650;2023-04-01T01:43:00;3.67;;;2.83;;
16460;SDS011;8341;42.048;24.650;2023-04-01T01:45:32;3.90;;;2.58;;
16460;SDS011;8341;42.048;24.650;2023-04-01T01:48:02;6.13;;;2.85;;
16460;SDS011;8341;42.048;24.650;2023-04-01T01:50:32;4.05;;;2.40;;
16460;SDS011;8341;42.048;24.650;2023-04-01T01:53:02;4.28;;;3.00;;
16460;SDS011;8341;42.048;24.650;2023-04-01T01:55:31;8.48;;;3.70;;
16460;SDS011;8341;42.048;24.650;2023-04-01T01:58:00;5.93;;;4.57;;
16460;SDS011;8341;42.048;24.650;2023-04-01T02:00:32;4.60;;;3.30;;
16460;SDS011;8341;42.048;24.650;2023-04-01T02:03:00;4.45;;;3.15;;
16460;SDS011;8341;42.048;24.650;2023-04-01T02:05:28;4.00;;;3.58;;
16460;SDS011;8341;42.048;24.650;2023-04-01T02:08:00;6.30;;;3.70;;
16460;SDS011;8341;42.048;24.650;2023-04-01T02:10:30;6.30;;;3.00;;
16460;SDS011;8341;42.048;24.650;2023-04-01T02:13:03;3.13;;;2.70;;
16460;SDS011;8341;42.048;24.650;2023-04-01T02:15:36;5.65;;;2.70;;
16460;SDS011;8341;42.048;24.650;2023-04-01T02:18:07;5.93;;;3.20;;
16460;SDS011;8341;42.048;24.650;2023-04-01T02:20:34;4.18;;;2.78;;
16460;SDS011;8341;42.048;24.650;2023-04-01T02:23:05;7.63;;;3.10;;
16460;SDS011;8341;42.048;24.650;2023-04-01T02:25:34;3.40;;;2.75;;
16460;SDS011;8341;42.048;24.650;2023-04-01T02:28:03;3.83;;;2.47;;
16460;SDS011;8341;42.048;24.650;2023-04-01T02:30:33;3.38;;;2.60;;
16460;SDS011;8341;42.048;24.650;2023-04-01T02:33:02;3.88;;;3.00;;
16460;SDS011;8341;42.048;24.650;2023-04-01T02:35:30;5.82;;;3.05;;
16460;SDS011;8341;42.048;24.650;2023-04-01T02:38:00;6.90;;;3.10;;
16460;SDS011;8341;42.048;24.650;2023-04-01T02:40:29;4.30;;;2.72;;
16460;SDS011;8341;42.048;24.650;2023-04-01T02:42:56;5.07;;;2.85;;
16460;SDS011;8341;42.048;24.650;2023-04-01T02:45:24;5.78;;;3.30;;
16460;SDS011;8341;42.048;24.650;2023-04-01T02:47:51;5.05;;;3.10;;
16460;SDS011;8341;42.048;24.650;2023-04-01T02:50:18;4.28;;;3.00;;
16460;SDS011;8341;42.048;24.650;2023-04-01T02:52:45;3.40;;;2.80;;
16460;SDS011;8341;42.048;24.650;2023-04-01T02:55:12;8.48;;;3.45;;
16460;SDS011;8341;42.048;24.650;2023-04-01T02:57:41;3.25;;;2.95;;
16460;SDS011;8341;42.048;24.650;2023-04-01T03:00:08;5.47;;;3.40;;
16460;SDS011;8341;42.048;24.650;2023-04-01T03:02:37;5.53;;;3.65;;
16460;SDS011;8341;42.048;24.650;2023-04-01T03:05:04;5.43;;;3.63;;
16460;SDS011;8341;42.048;24.650;2023-04-01T03:07:32;7.30;;;3.35;;
16460;SDS011;8341;42.048;24.650;2023-04-01T03:09:59;6.75;;;4.00;;
16460;SDS011;8341;42.048;24.650;2023-04-01T03:12:26;6.65;;;3.78;;
16460;SDS011;8341;42.048;24.650;2023-04-01T03:14:55;8.98;;;3.70;;
16460;SDS011;8341;42.048;24.650;2023-04-01T03:17:22;5.68;;;3.85;;
16460;SDS011;8341;42.048;24.650;2023-04-01T03:19:49;5.47;;;3.40;;
16460;SDS011;8341;42.048;24.650;2023-04-01T03:22:16;5.15;;;3.40;;
16460;SDS011;8341;42.048;24.650;2023-04-01T03:24:45;8.88;;;4.03;;
16460;SDS011;8341;42.048;24.650;2023-04-01T03:27:13;7.40;;;3.35;;
16460;SDS011;8341;42.048;24.650;2023-04-01T03:29:40;8.18;;;3.47;;
16460;SDS011;8341;42.048;24.650;2023-04-01T03:32:08;4.47;;;3.33;;
16460;SDS011;8341;42.048;24.650;2023-04-01T03:34:35;5.55;;;3.58;;
16460;SDS011;8341;42.048;24.650;2023-04-01T03:37:03;6.15;;;3.25;;
16460;SDS011;8341;42.048;24.650;2023-04-01T03:39:30;4.65;;;3.22;;
16460;SDS011;8341;42.048;24.650;2023-04-01T03:41:57;5.75;;;3.30;;
16460;SDS011;8341;42.048;24.650;2023-04-01T03:44:25;5.30;;;3.50;;
16460;SDS011;8341;42.048;24.650;2023-04-01T03:46:52;6.65;;;3.97;;
16460;SDS011;8341;42.048;24.650;2023-04-01T03:49:20;6.72;;;3.30;;
16460;SDS011;8341;42.048;24.650;2023-04-01T03:51:47;6.90;;;3.63;;
16460;SDS011;8341;42.048;24.650;2023-04-01T03:54:14;6.85;;;3.42;;
16460;SDS011;8341;42.048;24.650;2023-04-01T03:56:42;6.32;;;3.63;;
16460;SDS011;8341;42.048;24.650;2023-04-01T03:59:09;9.38;;;4.05;;
16460;SDS011;8341;42.048;24.650;2023-04-01T04:01:36;5.82;;;4.00;;
16460;SDS011;8341;42.048;24.650;2023-04-01T04:04:03;7.78;;;4.30;;
16460;SDS011;8341;42.048;24.650;2023-04-01T04:06:32;7.97;;;5.45;;
16460;SDS011;8341;42.048;24.650;2023-04-01T04:08:59;5.75;;;4.43;;
16460;SDS011;8341;42.048;24.650;2023-04-01T04:11:26;4.93;;;4.30;;
16460;SDS011;8341;42.048;24.650;2023-04-01T04:13:53;10.48;;;5.40;;
16460;SDS011;8341;42.048;24.650;2023-04-01T04:16:20;5.88;;;3.80;;
16460;SDS011;8341;42.048;24.650;2023-04-01T04:18:47;7.07;;;3.58;;
16460;SDS011;8341;42.048;24.650;2023-04-01T04:21:16;6.65;;;3.88;;
16460;SDS011;8341;42.048;24.650;2023-04-01T04:23:44;6.85;;;3.83;;
16460;SDS011;8341;42.048;24.650;2023-04-01T04:26:13;5.05;;;3.35;;
16460;SDS011;8341;42.048;24.650;2023-04-01T04:28:41;4.95;;;3.50;;
16460;SDS011;8341;42.048;24.650;2023-04-01T04:31:08;7.72;;;4.82;;
16460;SDS011;8341;42.048;24.650;2023-04-01T04:33:35;6.00;;;3.60;;
16460;SDS011;8341;42.048;24.650;2023-04-01T04:36:03;7.28;;;4.47;;
16460;SDS011;8341;42.048;24.650;2023-04-01T04:38:31;7.70;;;3.40;;
16460;SDS011;8341;42.048;24.650;2023-04-01T04:40:59;12.18;;;6.40;;
16460;SDS011;8341;42.048;24.650;2023-04-01T04:43:26;8.05;;;4.78;;
16460;SDS011;8341;42.048;24.650;2023-04-01T04:45:54;15.98;;;7.57;;
16460;SDS011;8341;42.048;24.650;2023-04-01T04:48:20;10.43;;;6.55;;
16460;SDS011;8341;42.048;24.650;2023-04-01T04:50:48;8.05;;;5.60;;
16460;SDS011;8341;42.048;24.650;2023-04-01T04:53:17;7.80;;;4.57;;
16460;SDS011;8341;42.048;24.650;2023-04-01T04:55:45;5.53;;;3.88;;
16460;SDS011;8341;42.048;24.650;2023-04-01T04:58:15;5.95;;;3.65;;
16460;SDS011;8341;42.048;24.650;2023-04-01T05:00:42;8.75;;;5.15;;
16460;SDS011;8341;42.048;24.650;2023-04-01T05:03:10;14.32;;;9.27;;
16460;SDS011;8341;42.048;24.650;2023-04-01T05:05:37;11.30;;;8.30;;
16460;SDS011;8341;42.048;24.650;2023-04-01T05:08:05;12.65;;;8.25;;
16460;SDS011;8341;42.048;24.650;2023-04-01T05:10:32;8.25;;;5.18;;
16460;SDS011;8341;42.048;24.650;2023-04-01T05:12:59;9.23;;;4.70;;
16460;SDS011;8341;42.048;24.650;2023-04-01T05:15:27;8.40;;;5.97;;
16460;SDS011;8341;42.048;24.650;2023-04-01T05:17:54;14.85;;;9.25;;
16460;SDS011;8341;42.048;24.650;2023-04-01T05:20:21;18.85;;;11.65;;
16460;SDS011;8341;42.048;24.650;2023-04-01T05:22:48;21.92;;;14.27;;
16460;SDS011;8341;42.048;24.650;2023-04-01T05:25:15;19.60;;;12.38;;
16460;SDS011;8341;42.048;24.650;2023-04-01T05:27:42;18.83;;;13.48;;
16460;SDS011;8341;42.048;24.650;2023-04-01T05:30:10;9.13;;;5.05;;
16460;SDS011;8341;42.048;24.650;2023-04-01T05:32:39;9.00;;;4.97;;
16460;SDS011;8341;42.048;24.650;2023-04-01T05:35:06;19.10;;;11.77;;
16460;SDS011;8341;42.048;24.650;2023-04-01T05:37:34;20.13;;;12.77;;
16460;SDS011;8341;42.048;24.650;2023-04-01T05:40:01;20.45;;;14.18;;
16460;SDS011;8341;42.048;24.650;2023-04-01T05:42:29;22.13;;;14.45;;
16460;SDS011;8341;42.048;24.650;2023-04-01T05:44:56;21.45;;;13.73;;
16460;SDS011;8341;42.048;24.650;2023-04-01T05:47:23;20.85;;;13.80;;
16460;SDS011;8341;42.048;24.650;2023-04-01T05:49:52;14.45;;;10.18;;
16460;SDS011;8341;42.048;24.650;2023-04-01T05:52:20;12.20;;;7.75;;
16460;SDS011;8341;42.048;24.650;2023-04-01T05:54:47;12.65;;;5.90;;
16460;SDS011;8341;42.048;24.650;2023-04-01T05:57:14;7.78;;;5.85;;
16460;SDS011;8341;42.048;24.650;2023-04-01T05:59:41;9.40;;;7.38;;
16460;SDS011;8341;42.048;24.650;2023-04-01T06:02:08;19.92;;;14.00;;
16460;SDS011;8341;42.048;24.650;2023-04-01T06:04:37;10.73;;;7.88;;
16460;SDS011;8341;42.048;24.650;2023-04-01T06:07:12;10.35;;;6.70;;
16460;SDS011;8341;42.048;24.650;2023-04-01T06:09:40;14.27;;;7.57;;
16460;SDS011;8341;42.048;24.650;2023-04-01T06:12:17;27.23;;;13.73;;
16460;SDS011;8341;42.048;24.650;2023-04-01T06:15:23;16.20;;;9.95;;
16460;SDS011;8341;42.048;24.650;2023-04-01T06:18:01;12.75;;;9.07;;
16460;SDS011;8341;42.048;24.650;2023-04-01T06:20:41;25.33;;;15.32;;
16460;SDS011;8341;42.048;24.650;2023-04-01T06:23:24;20.73;;;12.40;;
16460;SDS011;8341;42.048;24.650;2023-04-01T06:26:08;16.33;;;11.57;;
16460;SDS011;8341;42.048;24.650;2023-04-01T06:35:02;10.35;;;6.22;;
16460;SDS011;8341;42.048;24.650;2023-04-01T06:37:52;8.18;;;6.00;;
16460;SDS011;8341;42.048;24.650;2023-04-01T06:43:45;9.98;;;7.03;;
16460;SDS011;8341;42.048;24.650;2023-04-01T06:46:23;10.82;;;7.10;;
16460;SDS011;8341;42.048;24.650;2023-04-01T06:49:05;16.83;;;9.13;;
16460;SDS011;8341;42.048;24.650;2023-04-01T06:51:46;11.88;;;9.45;;
16460;SDS011;8341;42.048;24.650;2023-04-01T06:54:24;14.13;;;10.07;;
16460;SDS011;8341;42.048;24.650;2023-04-01T06:56:58;17.90;;;11.50;;
16460;SDS011;8341;42.048;24.650;2023-04-01T06:59:32;15.15;;;11.30;;
16460;SDS011;8341;42.048;24.650;2023-04-01T07:02:04;19.02;;;15.30;;
16460;SDS011;8341;42.048;24.650;2023-04-01T07:04:44;19.63;;;11.95;;
16460;SDS011;8341;42.048;24.650;2023-04-01T07:07:16;19.95;;;12.90;;
16460;SDS011;8341;42.048;24.650;2023-04-01T07:09:51;15.07;;;11.07;;
16460;SDS011;8341;42.048;24.650;2023-04-01T07:12:21;15.57;;;11.32;;
16460;SDS011;8341;42.048;24.650;2023-04-01T07:15:04;16.88;;;9.85;;
16460;SDS011;8341;42.048;24.650;2023-04-01T07:17:43;12.13;;;8.75;;
16460;SDS011;8341;42.048;24.650;2023-04-01T07:20:13;18.40;;;10.38;;
16460;SDS011;8341;42.048;24.650;2023-04-01T07:22:47;15.00;;;10.00;;
16460;SDS011;8341;42.048;24.650;2023-04-01T07:25:17;14.82;;;8.75;;
16460;SDS011;8341;42.048;24.650;2023-04-01T07:27:47;13.05;;;9.82;;
16460;SDS011;8341;42.048;24.650;2023-04-01T07:30:17;15.82;;;10.15;;
16460;SDS011;8341;42.048;24.650;2023-04-01T07:32:47;15.10;;;11.00;;
16460;SDS011;8341;42.048;24.650;2023-04-01T07:35:21;17.98;;;10.50;;
16460;SDS011;8341;42.048;24.650;2023-04-01T07:37:55;19.75;;;12.43;;
16460;SDS011;8341;42.048;24.650;2023-04-01T07:40:32;16.92;;;12.25;;
16460;SDS011;8341;42.048;24.650;2023-04-01T07:43:11;17.92;;;12.45;;
16460;SDS011;8341;42.048;24.650;2023-04-01T07:46:03;16.02;;;10.48;;
16460;SDS011;8341;42.048;24.650;2023-04-01T07:48:42;14.55;;;10.50;;
16460;SDS011;8341;42.048;24.650;2023-04-01T07:51:18;16.65;;;10.80;;
16460;SDS011;8341;42.048;24.650;2023-04-01T07:53:51;13.07;;;9.55;;
16460;SDS011;8341;42.048;24.650;2023-04-01T07:56:28;15.85;;;8.82;;
16460;SDS011;8341;42.048;24.650;2023-04-01T07:59:04;14.35;;;8.50;;
16460;SDS011;8341;42.048;24.650;2023-04-01T08:01:40;15.55;;;8.27;;
16460;SDS011;8341;42.048;24.650;2023-04-01T08:04:21;13.75;;;7.95;;
16460;SDS011;8341;42.048;24.650;2023-04-01T08:06:59;14.25;;;7.45;;
16460;SDS011;8341;42.048;24.650;2023-04-01T08:09:36;12.30;;;8.13;;
16460;SDS011;8341;42.048;24.650;2023-04-01T08:12:13;12.63;;;7.75;;
16460;SDS011;8341;42.048;24.650;2023-04-01T08:14:53;13.35;;;8.45;;
16460;SDS011;8341;42.048;24.650;2023-04-01T08:17:31;14.88;;;7.32;;
16460;SDS011;8341;42.048;24.650;2023-04-01T08:20:09;16.00;;;9.02;;
16460;SDS011;8341;42.048;24.650;2023-04-01T08:22:50;15.00;;;6.93;;
16460;SDS011;8341;42.048;24.650;2023-04-01T08:25:24;11.35;;;7.18;;
16460;SDS011;8341;42.048;24.650;2023-04-01T08:27:53;9.00;;;6.38;;
16460;SDS011;8341;42.048;24.650;2023-04-01T08:30:26;6.53;;;5.85;;
16460;SDS011;8341;42.048;24.650;2023-04-01T08:33:02;11.63;;;7.20;;
16460;SDS011;8341;42.048;24.650;2023-04-01T08:35:38;13.85;;;8.18;;
16460;SDS011;8341;42.048;24.650;2023-04-01T08:38:11;17.40;;;8.60;;
16460;SDS011;8341;42.048;24.650;2023-04-01T08:40:56;9.82;;;6.28;;
16460;SDS011;8341;42.048;24.650;2023-04-01T08:43:31;12.48;;;7.15;;
16460;SDS011;8341;42.048;24.650;2023-04-01T08:46:28;9.48;;;6.75;;
16460;SDS011;8341;42.048;24.650;2023-04-01T08:49:19;11.07;;;7.00;;
16460;SDS011;8341;42.048;24.650;2023-04-01T08:52:08;11.68;;;6.70;;
16460;SDS011;8341;42.048;24.650;2023-04-01T08:54:46;8.85;;;6.80;;
16460;SDS011;8341;42.048;24.650;2023-04-01T08:57:33;11.13;;;6.88;;
16460;SDS011;8341;42.048;24.650;2023-04-01T09:00:13;8.55;;;6.22;;
16460;SDS011;8341;42.048;24.650;2023-04-01T09:02:59;9.70;;;6.53;;
16460;SDS011;8341;42.048;24.650;2023-04-01T09:06:12;9.30;;;6.63;;
16460;SDS011;8341;42.048;24.650;2023-04-01T09:09:17;12.60;;;6.80;;
16460;SDS011;8341;42.048;24.650;2023-04-01T09:18:24;14.05;;;6.00;;
16460;SDS011;8341;42.048;24.650;2023-04-01T09:21:27;9.95;;;6.63;;
16460;SDS011;8341;42.048;24.650;2023-04-01T09:26:54;10.00;;;6.30;;
16460;SDS011;8341;42.048;24.650;2023-04-01T09:29:37;11.43;;;6.50;;
16460;SDS011;8341;42.048;24.650;2023-04-01T09:32:26;9.38;;;6.22;;
16460;SDS011;8341;42.048;24.650;2023-04-01T09:35:10;9.82;;;6.10;;
16460;SDS011;8341;42.048;24.650;2023-04-01T09:38:00;9.95;;;6.35;;
16460;SDS011;8341;42.048;24.650;2023-04-01T09:40:42;10.18;;;6.40;;
16460;SDS011;8341;42.048;24.650;2023-04-01T09:43:26;11.23;;;6.38;;
16460;SDS011;8341;42.048;24.650;2023-04-01T09:48:56;9.50;;;6.38;;
16460;SDS011;8341;42.048;24.650;2023-04-01T09:51:46;10.07;;;6.05;;
16460;SDS011;8341;42.048;24.650;2023-04-01T09:54:31;12.40;;;6.20;;
16460;SDS011;8341;42.048;24.650;2023-04-01T10:06:16;11.75;;;6.38;;
16460;SDS011;8341;42.048;24.650;2023-04-01T10:12:23;9.35;;;6.32;;
16460;SDS011;8341;42.048;24.650;2023-04-01T10:18:36;9.27;;;6.57;;
16460;SDS011;8341;42.048;24.650;2023-04-01T10:21:29;10.23;;;6.35;;
16460;SDS011;8341;42.048;24.650;2023-04-01T10:24:24;12.02;;;6.80;;
16460;SDS011;8341;42.048;24.650;2023-04-01T10:27:22;9.75;;;5.80;;
16460;SDS011;8341;42.048;24.650;2023-04-01T10:39:29;13.63;;;6.53;;
16460;SDS011;8341;42.048;24.650;2023-04-01T10:42:11;10.13;;;6.63;;
16460;SDS011;8341;42.048;24.650;2023-04-01T10:48:17;9.93;;;6.97;;
16460;SDS011;8341;42.048;24.650;2023-04-01T10:51:14;13.00;;;6.35;;
16460;SDS011;8341;42.048;24.650;2023-04-01T10:56:51;11.95;;;6.32;;
16460;SDS011;8341;42.048;24.650;2023-04-01T11:02:50;9.15;;;5.32;;
16460;SDS011;8341;42.048;24.650;2023-04-01T11:12:09;9.43;;;6.20;;
16460;SDS011;8341;42.048;24.650;2023-04-01T11:18:01;8.20;;;5.50;;
16460;SDS011;8341;42.048;24.650;2023-04-01T11:23:50;10.45;;;6.43;;
16460;SDS011;8341;42.048;24.650;2023-04-01T11:26:30;10.52;;;5.93;;
16460;SDS011;8341;42.048;24.650;2023-04-01T11:29:09;7.40;;;6.10;;
16460;SDS011;8341;42.048;24.650;2023-04-01T11:31:52;8.15;;;6.10;;
16460;SDS011;8341;42.048;24.650;2023-04-01T11:34:32;13.80;;;6.15;;
16460;SDS011;8341;42.048;24.650;2023-04-01T11:37:12;11.80;;;7.15;;
16460;SDS011;8341;42.048;24.650;2023-04-01T11:39:54;8.82;;;6.40;;
16460;SDS011;8341;42.048;24.650;2023-04-01T11:42:34;9.48;;;6.63;;
16460;SDS011;8341;42.048;24.650;2023-04-01T11:45:11;13.88;;;7.22;;
16460;SDS011;8341;42.048;24.650;2023-04-01T11:50:52;13.48;;;6.38;;
16460;SDS011;8341;42.048;24.650;2023-04-01T11:53:41;8.63;;;6.40;;
16460;SDS011;8341;42.048;24.650;2023-04-01T11:56:17;8.57;;;6.35;;
16460;SDS011;8341;42.048;24.650;2023-04-01T11:59:10;8.50;;;6.22;;
16460;SDS011;8341;42.048;24.650;2023-04-01T12:02:12;12.70;;;7.15;;
16460;SDS011;8341;42.048;24.650;2023-04-01T12:05:07;11.40;;;6.32;;
16460;SDS011;8341;42.048;24.650;2023-04-01T12:07:55;11.38;;;6.05;;
16460;SDS011;8341;42.048;24.650;2023-04-01T12:10:33;10.43;;;7.07;;
16460;SDS011;8341;42.048;24.650;2023-04-01T12:13:10;10.60;;;6.57;;
16460;SDS011;8341;42.048;24.650;2023-04-01T12:15:56;10.10;;;6.15;;
16460;SDS011;8341;42.048;24.650;2023-04-01T12:18:36;8.70;;;5.88;;
16460;SDS011;8341;42.048;24.650;2023-04-01T12:21:14;8.90;;;6.25;;
16460;SDS011;8341;42.048;24.650;2023-04-01T12:23:54;11.55;;;7.13;;
16460;SDS011;8341;42.048;24.650;2023-04-01T12:29:50;9.07;;;6.53;;
16460;SDS011;8341;42.048;24.650;2023-04-01T12:32:33;9.88;;;6.70;;
16460;SDS011;8341;42.048;24.650;2023-04-01T12:35:15;12.35;;;7.05;;
16460;SDS011;8341;42.048;24.650;2023-04-01T12:37:50;8.13;;;6.03;;
16460;SDS011;8341;42.048;24.650;2023-04-01T12:40:28;8.77;;;6.40;;
16460;SDS011;8341;42.048;24.650;2023-04-01T12:43:17;12.38;;;5.88;;
16460;SDS011;8341;42.048;24.650;2023-04-01T12:46:05;10.45;;;6.80;;
16460;SDS011;8341;42.048;24.650;2023-04-01T12:51:33;10.90;;;6.78;;
16460;SDS011;8341;42.048;24.650;2023-04-01T12:54:17;10.80;;;7.25;;
16460;SDS011;8341;42.048;24.650;2023-04-01T12:57:11;10.30;;;6.53;;
16460;SDS011;8341;42.048;24.650;2023-04-01T12:59:55;10.02;;;7.07;;
16460;SDS011;8341;42.048;24.650;2023-04-01T13:02:38;8.27;;;6.32;;
16460;SDS011;8341;42.048;24.650;2023-04-01T13:08:22;8.52;;;5.85;;
16460;SDS011;8341;42.048;24.650;2023-04-01T13:11:00;9.32;;;6.38;;
16460;SDS011;8341;42.048;24.650;2023-04-01T13:16:39;9.60;;;6.55;;
16460;SDS011;8341;42.048;24.650;2023-04-01T13:19:13;6.80;;;6.10;;
16460;SDS011;8341;42.048;24.650;2023-04-01T13:21:50;8.80;;;6.32;;
16460;SDS011;8341;42.048;24.650;2023-04-01T13:24:29;7.78;;;6.15;;
16460;SDS011;8341;42.048;24.650;2023-04-01T13:27:07;7.65;;;6.10;;
16460;SDS011;8341;42.048;24.650;2023-04-01T13:29:41;8.95;;;6.45;;
16460;SDS011;8341;42.048;24.650;2023-04-01T13:32:15;14.32;;;8.93;;
16460;SDS011;8341;42.048;24.650;2023-04-01T13:34:59;17.73;;;11.80;;
16460;SDS011;8341;42.048;24.650;2023-04-01T13:37:41;14.05;;;9.95;;
16460;SDS011;8341;42.048;24.650;2023-04-01T13:40:23;15.25;;;9.65;;
16460;SDS011;8341;42.048;24.650;2023-04-01T13:42:59;12.90;;;8.93;;
16460;SDS011;8341;42.048;24.650;2023-04-01T13:45:33;16.27;;;11.23;;
16460;SDS011;8341;42.048;24.650;2023-04-01T13:48:15;82.45;;;45.13;;
16460;SDS011;8341;42.048;24.650;2023-04-01T13:57:22;17.20;;;10.43;;
16460;SDS011;8341;42.048;24.650;2023-04-01T14:03:14;14.55;;;10.25;;
16460;SDS011;8341;42.048;24.650;2023-04-01T14:06:02;13.50;;;10.00;;
16460;SDS011;8341;42.048;24.650;2023-04-01T14:08:41;14.32;;;10.32;;
16460;SDS011;8341;42.048;24.650;2023-04-01T14:11:19;13.70;;;8.80;;
16460;SDS011;8341;42.048;24.650;2023-04-01T14:13:56;14.05;;;10.73;;
16460;SDS011;8341;42.048;24.650;2023-04-01T14:16:47;19.05;;;15.75;;
16460;SDS011;8341;42.048;24.650;2023-04-01T14:19:36;13.13;;;9.68;;
16460;SDS011;8341;42.048;24.650;2023-04-01T14:22:20;15.07;;;11.85;;
16460;SDS011;8341;42.048;24.650;2023-04-01T14:25:19;13.00;;;9.70;;
16460;SDS011;8341;42.048;24.650;2023-04-01T14:27:58;13.75;;;9.77;;
16460;SDS011;8341;42.048;24.650;2023-04-01T14:30:41;12.45;;;8.20;;
16460;SDS011;8341;42.048;24.650;2023-04-01T14:33:23;8.65;;;6.30;;
16460;SDS011;8341;42.048;24.650;2023-04-01T14:36:03;9.27;;;6.22;;
16460;SDS011;8341;42.048;24.650;2023-04-01T14:38:47;9.55;;;6.60;;
16460;SDS011;8341;42.048;24.650;2023-04-01T14:41:24;8.30;;;5.93;;
16460;SDS011;8341;42.048;24.650;2023-04-01T14:44:13;10.70;;;6.43;;
16460;SDS011;8341;42.048;24.650;2023-04-01T14:50:02;12.98;;;7.78;;
16460;SDS011;8341;42.048;24.650;2023-04-01T14:52:35;8.57;;;6.15;;
16460;SDS011;8341;42.048;24.650;2023-04-01T14:55:15;11.35;;;7.07;;
16460;SDS011;8341;42.048;24.650;2023-04-01T14:58:00;7.60;;;5.35;;
16460;SDS011;8341;42.048;24.650;2023-04-01T15:00:45;7.85;;;5.30;;
16460;SDS011;8341;42.048;24.650;2023-04-01T15:03:16;6.85;;;5.10;;
16460;SDS011;8341;42.048;24.650;2023-04-01T15:05:51;6.90;;;4.85;;
16460;SDS011;8341;42.048;24.650;2023-04-01T15:08:22;6.90;;;6.18;;
16460;SDS011;8341;42.048;24.650;2023-04-01T15:11:05;7.95;;;6.10;;
16460;SDS011;8341;42.048;24.650;2023-04-01T15:16:51;13.07;;;9.18;;
16460;SDS011;8341;42.048;24.650;2023-04-01T15:19:34;10.80;;;7.55;;
16460;SDS011;8341;42.048;24.650;2023-04-01T15:22:18;10.98;;;7.65;;
16460;SDS011;8341;42.048;24.650;2023-04-01T15:25:02;7.82;;;5.93;;
16460;SDS011;8341;42.048;24.650;2023-04-01T15:27:45;9.25;;;6.68;;
16460;SDS011;8341;42.048;24.650;2023-04-01T15:30:27;7.28;;;5.63;;
16460;SDS011;8341;42.048;24.650;2023-04-01T15:33:06;5.72;;;4.50;;
16460;SDS011;8341;42.048;24.650;2023-04-01T15:35:43;10.13;;;7.22;;
16460;SDS011;8341;42.048;24.650;2023-04-01T15:38:20;7.05;;;5.28;;
16460;SDS011;8341;42.048;24.650;2023-04-01T15:40:58;5.63;;;4.40;;
16460;SDS011;8341;42.048;24.650;2023-04-01T15:43:32;5.75;;;4.45;;
16460;SDS011;8341;42.048;24.650;2023-04-01T15:52:10;5.55;;;4.72;;
16460;SDS011;8341;42.048;24.650;2023-04-01T15:54:53;7.05;;;4.60;;
16460;SDS011;8341;42.048;24.650;2023-04-01T15:57:39;6.90;;;4.68;;
16460;SDS011;8341;42.048;24.650;2023-04-01T16:00:17;4.60;;;3.60;;
16460;SDS011;8341;42.048;24.650;2023-04-01T16:02:51;5.05;;;3.60;;
16460;SDS011;8341;42.048;24.650;2023-04-01T16:05:33;6.85;;;5.63;;
16460;SDS011;8341;42.048;24.650;2023-04-01T16:11:14;5.38;;;4.63;;
16460;SDS011;8341;42.048;24.650;2023-04-01T16:13:51;7.95;;;5.20;;
16460;SDS011;8341;42.048;24.650;2023-04-01T16:16:28;7.63;;;5.43;;
16460;SDS011;8341;42.048;24.650;2023-04-01T16:19:10;6.05;;;4.60;;
16460;SDS011;8341;42.048;24.650;2023-04-01T16:21:50;6.47;;;5.22;;
16460;SDS011;8341;42.048;24.650;2023-04-01T16:24:23;6.40;;;5.30;;
16460;SDS011;8341;42.048;24.650;2023-04-01T16:27:02;5.90;;;4.70;;
16460;SDS011;8341;42.048;24.650;2023-04-01T16:29:36;8.27;;;4.70;;
16460;SDS011;8341;42.048;24.650;2023-04-01T16:34:57;6.97;;;5.32;;
16460;SDS011;8341;42.048;24.650;2023-04-01T16:37:41;7.55;;;6.50;;
16460;SDS011;8341;42.048;24.650;2023-04-01T16:40:16;9.40;;;6.28;;
16460;SDS011;8341;42.048;24.650;2023-04-01T16:42:55;9.63;;;7.22;;
16460;SDS011;8341;42.048;24.650;2023-04-01T16:45:33;11.02;;;6.78;;
16460;SDS011;8341;42.048;24.650;2023-04-01T16:48:10;7.93;;;6.32;;
16460;SDS011;8341;42.048;24.650;2023-04-01T16:50:43;7.80;;;6.05;;
16460;SDS011;8341;42.048;24.650;2023-04-01T16:53:17;11.50;;;6.63;;
16460;SDS011;8341;42.048;24.650;2023-04-01T16:55:52;7.15;;;4.90;;
16460;SDS011;8341;42.048;24.650;2023-04-01T16:58:27;5.82;;;4.05;;
16460;SDS011;8341;42.048;24.650;2023-04-01T17:01:02;4.97;;;4.47;;
16460;SDS011;8341;42.048;24.650;2023-04-01T17:03:33;5.20;;;4.50;;
16460;SDS011;8341;42.048;24.650;2023-04-01T17:06:10;4.20;;;3.28;;
16460;SDS011;8341;42.048;24.650;2023-04-01T17:08:59;3.00;;;2.70;;
16460;SDS011;8341;42.048;24.650;2023-04-01T17:11:35;4.85;;;3.42;;
16460;SDS011;8341;42.048;24.650;2023-04-01T17:14:13;5.25;;;4.75;;
16460;SDS011;8341;42.048;24.650;2023-04-01T17:16:55;6.95;;;4.30;;
16460;SDS011;8341;42.048;24.650;2023-04-01T17:19:42;8.52;;;5.25;;
16460;SDS011;8341;42.048;24.650;2023-04-01T17:22:21;10.45;;;6.75;;
16460;SDS011;8341;42.048;24.650;2023-04-01T17:24:58;11.88;;;8.88;;